Columbus Township, Michigan
Current Conditions -  °F | °C
As of 1:58 PM on Tuesday 27 Jan 2015 (Local Time) from KPHN Reporting Station
Broken Clouds Broken Clouds  
Wind Chill: 14°   Ceiling: 2200
Heat Index: 23°   Visibility: 10mi
Dew Point: 14°   Wind: 8mph
Humidity: 68%   Direction: 360°N
Pressure: 30.1"   Gusts: 17mph
Location:  42.856°N, 82.6757°W
Report Text: KPHN 271858Z AUTO 36007G15KT 310V020 10SM BKN022 M05/M10 A3010 RMK AO2
Loading
Personal Weather Stations






























Interactive Weather Map New forecast layout! Learn more

10-Day Weather Forecast

Advertisements
Track Severe Weather on mobile